createdAt,value
2023-04-02T00:00:26.001Z,21.69
2023-04-02T00:01:26.000Z,21.74
2023-04-02T00:02:26.065Z,21.72
2023-04-02T00:03:26.110Z,21.75
2023-04-02T00:04:26.017Z,21.78
2023-04-02T00:05:26.012Z,21.72
2023-04-02T00:06:26.010Z,21.76
2023-04-02T00:07:26.015Z,21.82
2023-04-02T00:08:26.012Z,21.72
2023-04-02T00:09:26.040Z,21.67
2023-04-02T00:10:26.021Z,21.74
2023-04-02T00:11:26.022Z,21.81
2023-04-02T00:12:26.031Z,21.76
2023-04-02T00:13:26.038Z,21.75
2023-04-02T00:14:26.030Z,21.76
2023-04-02T00:15:26.030Z,21.79
2023-04-02T00:16:26.088Z,21.75
2023-04-02T00:17:26.032Z,21.81
2023-04-02T00:18:26.057Z,21.78
2023-04-02T00:19:26.033Z,21.79
2023-04-02T00:20:26.044Z,21.74
2023-04-02T00:21:26.047Z,21.76
2023-04-02T00:22:26.065Z,21.75
2023-04-02T00:23:26.042Z,21.78
2023-04-02T00:24:26.250Z,21.71
2023-04-02T00:25:26.079Z,21.69
2023-04-02T00:26:26.054Z,21.66
2023-04-02T00:27:26.058Z,21.75
2023-04-02T00:28:26.061Z,21.66
2023-04-02T00:29:26.057Z,21.69
2023-04-02T00:30:26.061Z,21.69
2023-04-02T00:31:26.158Z,21.69
2023-04-02T00:32:26.245Z,21.64
2023-04-02T00:33:26.063Z,21.71
2023-04-02T00:34:26.071Z,21.67
2023-04-02T00:35:26.218Z,21.72
2023-04-02T00:36:26.073Z,21.67
2023-04-02T00:37:26.077Z,21.69
2023-04-02T00:38:26.077Z,21.61
2023-04-02T00:39:26.078Z,21.75
2023-04-02T00:40:26.083Z,21.71
2023-04-02T00:41:26.101Z,21.69
2023-04-02T00:42:26.102Z,21.74
2023-04-02T00:43:26.092Z,21.67
2023-04-02T00:44:26.092Z,21.64
2023-04-02T00:45:26.088Z,21.75
2023-04-02T00:46:26.171Z,21.72
2023-04-02T00:47:26.097Z,21.67
2023-04-02T00:48:26.094Z,21.71
2023-04-02T00:49:26.099Z,21.63
2023-04-02T00:50:26.098Z,21.69
2023-04-02T00:51:26.267Z,21.67
2023-04-02T00:52:26.104Z,21.71
2023-04-02T00:53:26.103Z,21.64
2023-04-02T00:54:26.112Z,21.63
2023-04-02T00:55:26.118Z,21.67
2023-04-02T00:56:26.110Z,21.72
2023-04-02T00:57:26.174Z,21.69
2023-04-02T00:58:26.116Z,21.61
2023-04-02T00:59:26.124Z,21.63
2023-04-02T01:00:26.118Z,21.63
2023-04-02T01:01:26.126Z,21.63
2023-04-02T01:02:26.239Z,21.63
2023-04-02T01:03:26.199Z,21.66
2023-04-02T01:04:26.124Z,21.63
2023-04-02T01:05:26.126Z,21.72
2023-04-02T01:06:26.127Z,21.59
2023-04-02T01:07:26.277Z,21.66
2023-04-02T01:08:26.133Z,21.72
2023-04-02T01:09:26.135Z,21.63
2023-04-02T01:10:26.135Z,21.69
2023-04-02T01:11:26.133Z,21.66
2023-04-02T01:12:26.136Z,21.67
2023-04-02T01:13:26.163Z,21.67
2023-04-02T01:14:26.140Z,21.67
2023-04-02T01:15:26.147Z,21.60
2023-04-02T01:16:26.170Z,21.57
2023-04-02T01:17:26.180Z,21.63
2023-04-02T01:18:26.146Z,21.63
2023-04-02T01:19:26.150Z,21.56
2023-04-02T01:20:26.146Z,21.57
2023-04-02T01:21:26.165Z,21.53
2023-04-02T01:22:26.151Z,21.57
2023-04-02T01:23:26.457Z,21.53
2023-04-02T01:24:26.157Z,21.57
2023-04-02T01:25:26.162Z,21.59
2023-04-02T01:26:26.157Z,21.63
2023-04-02T01:27:26.170Z,21.59
2023-04-02T01:28:26.163Z,21.56
2023-04-02T01:29:26.198Z,21.66
2023-04-02T01:30:26.197Z,21.60
2023-04-02T01:31:26.196Z,21.66
2023-04-02T01:32:26.265Z,21.57
2023-04-02T01:33:26.174Z,21.59
2023-04-02T01:34:26.714Z,21.51
2023-04-02T01:35:26.175Z,21.51
2023-04-02T01:36:26.174Z,21.50
2023-04-02T01:37:26.181Z,21.60
2023-04-02T01:38:26.223Z,21.56
2023-04-02T01:39:26.186Z,21.51
2023-04-02T01:40:26.184Z,21.54
2023-04-02T01:41:26.184Z,21.48
2023-04-02T01:42:26.184Z,21.57
2023-04-02T01:43:26.188Z,21.56
2023-04-02T01:44:26.187Z,21.53
2023-04-02T01:45:26.228Z,21.53
2023-04-02T01:46:26.248Z,21.48
2023-04-02T01:47:26.231Z,21.57
2023-04-02T01:48:26.197Z,21.53
2023-04-02T01:49:26.200Z,21.53
2023-04-02T01:50:26.198Z,21.59
2023-04-02T01:51:26.206Z,21.59
2023-04-02T01:52:26.204Z,21.53
2023-04-02T01:53:26.218Z,21.56
2023-04-02T01:54:26.203Z,21.53
2023-04-02T01:55:26.210Z,21.57
2023-04-02T01:56:26.206Z,21.51
2023-04-02T01:57:26.278Z,21.54
2023-04-02T01:58:26.215Z,21.60
2023-04-02T01:59:26.222Z,21.48
2023-04-02T02:00:26.344Z,21.53
2023-04-02T02:01:26.334Z,21.54
2023-04-02T02:02:26.265Z,21.51
2023-04-02T02:03:26.231Z,21.60
2023-04-02T02:04:26.224Z,21.51
2023-04-02T02:05:26.227Z,21.54
2023-04-02T02:06:26.228Z,21.54
2023-04-02T02:07:26.232Z,21.60
2023-04-02T02:08:26.229Z,21.56
2023-04-02T02:09:26.234Z,21.54
2023-04-02T02:10:26.242Z,21.56
2023-04-02T02:11:26.251Z,21.57
2023-04-02T02:12:26.240Z,21.60
2023-04-02T02:13:26.243Z,21.59
2023-04-02T02:14:26.243Z,21.57
2023-04-02T02:15:26.245Z,21.56
2023-04-02T02:16:26.277Z,21.56
2023-04-02T02:17:26.316Z,21.54
2023-04-02T02:18:26.256Z,21.53
2023-04-02T02:19:26.253Z,21.59
2023-04-02T02:20:26.266Z,21.56
2023-04-02T02:21:26.269Z,21.50
2023-04-02T02:22:26.262Z,21.51
2023-04-02T02:23:26.261Z,21.56
2023-04-02T02:24:26.264Z,21.56
2023-04-02T02:25:26.265Z,21.53
2023-04-02T02:26:26.266Z,21.53
2023-04-02T02:27:26.282Z,21.53
2023-04-02T02:28:26.271Z,21.50
2023-04-02T02:29:26.272Z,21.51
2023-04-02T02:30:26.272Z,21.56
2023-04-02T02:31:26.314Z,21.51
2023-04-02T02:32:26.320Z,21.56
2023-04-02T02:33:26.318Z,21.57
2023-04-02T02:34:26.294Z,21.54
2023-04-02T02:35:26.283Z,21.53
2023-04-02T02:36:26.334Z,21.53
2023-04-02T02:37:26.293Z,21.51
2023-04-02T02:38:26.290Z,21.56
2023-04-02T02:39:26.289Z,21.51
2023-04-02T02:40:26.300Z,21.56
2023-04-02T02:41:26.310Z,21.50
2023-04-02T02:42:26.300Z,21.56
2023-04-02T02:43:26.302Z,21.53
2023-04-02T02:44:26.302Z,21.56
2023-04-02T02:45:26.318Z,21.56
2023-04-02T02:46:26.468Z,21.53
2023-04-02T02:47:26.357Z,21.53
2023-04-02T02:48:26.303Z,21.53
2023-04-02T02:49:26.344Z,21.46
2023-04-02T02:50:26.307Z,21.54
2023-04-02T02:51:26.312Z,21.54
2023-04-02T02:52:26.307Z,21.53
2023-04-02T02:53:26.333Z,21.50
2023-04-02T02:54:26.320Z,21.53
2023-04-02T02:55:26.313Z,21.54
2023-04-02T02:56:26.312Z,21.59
2023-04-02T02:57:26.425Z,21.50
2023-04-02T02:58:26.322Z,21.53
2023-04-02T02:59:26.350Z,21.56
2023-04-02T03:00:26.336Z,21.54
2023-04-02T03:01:26.349Z,21.48
2023-04-02T03:02:26.395Z,21.50
2023-04-02T03:03:26.834Z,21.56
2023-04-02T03:04:26.357Z,21.54
2023-04-02T03:05:26.361Z,21.51
2023-04-02T03:06:26.326Z,21.46
2023-04-02T03:07:26.333Z,21.53
2023-04-02T03:08:26.334Z,21.53
2023-04-02T03:09:26.340Z,21.53
2023-04-02T03:10:26.337Z,21.48
2023-04-02T03:11:26.345Z,21.48
2023-04-02T03:12:26.344Z,21.48
2023-04-02T03:13:26.361Z,21.53
2023-04-02T03:14:26.373Z,21.56
2023-04-02T03:15:26.368Z,21.54
2023-04-02T03:16:26.411Z,21.54
2023-04-02T03:17:26.410Z,21.41
2023-04-02T03:18:26.350Z,21.36
2023-04-02T03:19:26.356Z,21.41
2023-04-02T03:20:26.397Z,21.46
2023-04-02T03:21:26.381Z,21.51
2023-04-02T03:22:26.358Z,21.44
2023-04-02T03:23:26.363Z,21.41
2023-04-02T03:24:26.403Z,21.48
2023-04-02T03:25:26.362Z,21.59
2023-04-02T03:26:26.386Z,21.46
2023-04-02T03:27:26.441Z,21.50
2023-04-02T03:28:26.405Z,21.45
2023-04-02T03:29:26.512Z,21.42
2023-04-02T03:30:26.478Z,21.42
2023-04-02T03:31:26.423Z,21.42
2023-04-02T03:32:26.532Z,21.46
2023-04-02T03:33:26.592Z,21.44
2023-04-02T03:34:26.437Z,21.56
2023-04-02T03:35:26.512Z,21.56
2023-04-02T03:36:26.477Z,21.59
2023-04-02T03:37:26.410Z,21.54
2023-04-02T03:38:26.537Z,21.57
2023-04-02T03:39:26.395Z,21.46
2023-04-02T03:40:26.397Z,21.48
2023-04-02T03:41:26.389Z,21.41
2023-04-02T03:42:26.399Z,21.36
2023-04-02T03:43:26.608Z,21.36
2023-04-02T03:44:26.398Z,21.36
2023-04-02T03:45:26.412Z,21.38
2023-04-02T03:46:26.448Z,21.39
2023-04-02T03:47:26.425Z,21.38
2023-04-02T03:48:26.425Z,21.35
2023-04-02T03:49:26.411Z,21.41
2023-04-02T03:50:26.415Z,21.48
2023-04-02T03:51:26.418Z,21.41
2023-04-02T03:52:26.414Z,21.45
2023-04-02T03:53:26.441Z,21.48
2023-04-02T03:54:26.425Z,21.56
2023-04-02T03:55:26.423Z,21.45
2023-04-02T03:56:26.437Z,21.50
2023-04-02T03:57:26.476Z,21.36
2023-04-02T03:58:26.423Z,21.48
2023-04-02T03:59:26.434Z,21.50
2023-04-02T04:00:26.427Z,21.56
2023-04-02T04:01:26.442Z,21.48
2023-04-02T04:02:26.573Z,21.45
2023-04-02T04:03:26.425Z,21.45
2023-04-02T04:04:26.475Z,21.48
2023-04-02T04:05:26.441Z,21.53
2023-04-02T04:06:26.433Z,21.53
2023-04-02T04:07:26.441Z,21.44
2023-04-02T04:08:26.587Z,21.41
2023-04-02T04:09:26.472Z,21.45
2023-04-02T04:10:26.442Z,21.53
2023-04-02T04:11:26.489Z,21.51
2023-04-02T04:12:26.459Z,21.36
2023-04-02T04:13:26.448Z,21.46
2023-04-02T04:14:26.448Z,21.53
2023-04-02T04:15:26.465Z,21.51
2023-04-02T04:16:26.480Z,21.46
2023-04-02T04:17:26.486Z,21.46
2023-04-02T04:18:26.500Z,21.35
2023-04-02T04:19:26.458Z,21.39
2023-04-02T04:20:26.457Z,21.36
2023-04-02T04:21:26.461Z,21.38
2023-04-02T04:22:26.459Z,21.34
2023-04-02T04:23:26.467Z,21.36
2023-04-02T04:24:26.479Z,21.38
2023-04-02T04:25:26.485Z,21.42
2023-04-02T04:26:26.470Z,21.39
2023-04-02T04:27:26.474Z,21.36
2023-04-02T04:28:26.470Z,21.41
2023-04-02T04:29:26.476Z,21.38
2023-04-02T04:30:26.479Z,21.41
2023-04-02T04:31:26.497Z,21.39
2023-04-02T04:32:26.515Z,21.45
2023-04-02T04:33:26.484Z,21.38
2023-04-02T04:34:26.489Z,21.35
2023-04-02T04:35:26.545Z,21.36
2023-04-02T04:36:26.482Z,21.46
2023-04-02T04:37:26.487Z,21.39
2023-04-02T04:38:26.641Z,21.36
2023-04-02T04:39:26.487Z,21.34
2023-04-02T04:40:26.487Z,21.36
2023-04-02T04:41:26.517Z,21.38
2023-04-02T04:42:26.500Z,21.41
2023-04-02T04:43:26.497Z,21.32
2023-04-02T04:44:26.503Z,21.36
2023-04-02T04:45:26.500Z,21.36
2023-04-02T04:46:26.569Z,21.51
2023-04-02T04:47:26.550Z,21.45
2023-04-02T04:48:26.714Z,21.48
2023-04-02T04:49:26.522Z,21.51
2023-04-02T04:50:26.508Z,21.48
2023-04-02T04:51:26.513Z,21.36
2023-04-02T04:52:26.513Z,21.36
2023-04-02T04:53:26.766Z,21.35
2023-04-02T04:54:26.524Z,21.34
2023-04-02T04:55:26.534Z,21.36
2023-04-02T04:56:26.525Z,21.34
2023-04-02T04:57:26.665Z,21.45
2023-04-02T04:58:26.522Z,21.42
2023-04-02T04:59:26.534Z,21.46
2023-04-02T05:00:26.527Z,21.34
2023-04-02T05:01:26.549Z,21.46
2023-04-02T05:02:26.540Z,21.46
2023-04-02T05:03:26.528Z,21.48
2023-04-02T05:04:26.548Z,21.45
2023-04-02T05:05:26.535Z,21.51
2023-04-02T05:06:26.542Z,21.46
2023-04-02T05:07:26.539Z,21.51
2023-04-02T05:08:26.540Z,21.44
2023-04-02T05:09:26.556Z,21.44
2023-04-02T05:10:26.546Z,21.54
2023-04-02T05:11:26.545Z,21.39
2023-04-02T05:12:26.542Z,21.45
2023-04-02T05:13:26.571Z,21.36
2023-04-02T05:14:26.557Z,21.54
2023-04-02T05:15:26.548Z,21.51
2023-04-02T05:16:26.570Z,21.34
2023-04-02T05:17:26.632Z,21.56
2023-04-02T05:18:26.606Z,21.45
2023-04-02T05:19:26.556Z,21.48
2023-04-02T05:20:26.568Z,21.60
2023-04-02T05:21:26.567Z,21.56
2023-04-02T05:22:26.561Z,21.44
2023-04-02T05:23:26.563Z,21.53
2023-04-02T05:24:26.559Z,21.56
2023-04-02T05:25:26.577Z,21.59
2023-04-02T05:26:26.567Z,21.61
2023-04-02T05:27:26.568Z,21.67
2023-04-02T05:28:26.569Z,21.56
2023-04-02T05:29:26.589Z,21.57
2023-04-02T05:30:26.576Z,21.64
2023-04-02T05:31:26.595Z,21.56
2023-04-02T05:32:26.611Z,21.56
2023-04-02T05:33:26.583Z,21.57
2023-04-02T05:34:26.588Z,21.53
2023-04-02T05:35:26.600Z,21.51
2023-04-02T05:36:26.630Z,21.56
2023-04-02T05:37:26.589Z,21.59
2023-04-02T05:38:26.602Z,21.61
2023-04-02T05:39:26.595Z,21.64
2023-04-02T05:40:26.595Z,21.67
2023-04-02T05:41:26.588Z,21.64
2023-04-02T05:42:26.597Z,21.67
2023-04-02T05:43:26.594Z,21.61
2023-04-02T05:44:26.605Z,21.66
2023-04-02T05:45:26.640Z,21.59
2023-04-02T05:46:26.623Z,21.56
2023-04-02T05:47:26.649Z,21.66
2023-04-02T05:48:26.604Z,21.63
2023-04-02T05:49:26.611Z,21.56
2023-04-02T05:50:26.613Z,21.66
2023-04-02T05:51:26.614Z,21.67
2023-04-02T05:52:26.613Z,21.64
2023-04-02T05:53:26.622Z,21.66
2023-04-02T05:54:26.616Z,21.69
2023-04-02T05:55:26.618Z,21.63
2023-04-02T05:56:26.622Z,21.64
2023-04-02T05:57:39.458Z,21.64
2023-04-02T05:58:35.253Z,21.66
2023-04-02T05:59:26.621Z,21.64
2023-04-02T06:00:26.629Z,21.60
2023-04-02T06:01:26.657Z,21.75
2023-04-02T06:02:26.711Z,21.72
2023-04-02T06:03:26.754Z,21.69
2023-04-02T06:04:26.640Z,21.74
2023-04-02T06:05:26.626Z,21.81
2023-04-02T06:06:26.649Z,21.75
2023-04-02T06:07:26.635Z,21.81
2023-04-02T06:08:26.646Z,21.78
2023-04-02T06:09:26.644Z,21.81
2023-04-02T06:10:26.643Z,21.81
2023-04-02T06:11:26.644Z,21.85
2023-04-02T06:12:26.653Z,21.75
2023-04-02T06:13:26.645Z,21.74
2023-04-02T06:14:26.648Z,21.74
2023-04-02T06:15:26.645Z,21.79
2023-04-02T06:16:26.678Z,21.79
2023-04-02T06:17:26.699Z,21.79
2023-04-02T06:18:26.652Z,21.82
2023-04-02T06:19:26.657Z,21.76
2023-04-02T06:20:26.660Z,21.76
2023-04-02T06:21:26.660Z,21.72
2023-04-02T06:22:26.660Z,21.78
2023-04-02T06:23:26.712Z,21.71
2023-04-02T06:24:26.681Z,21.75
2023-04-02T06:25:26.672Z,21.72
2023-04-02T06:26:26.672Z,21.78
2023-04-02T06:27:26.676Z,21.82
2023-04-02T06:28:26.822Z,21.76
2023-04-02T06:29:26.674Z,21.72
2023-04-02T06:30:26.679Z,21.76
2023-04-02T06:31:26.715Z,21.76
2023-04-02T06:32:26.715Z,21.79
2023-04-02T06:33:26.720Z,21.78
2023-04-02T06:34:26.689Z,21.79
2023-04-02T06:35:26.683Z,21.79
2023-04-02T06:36:26.687Z,21.76
2023-04-02T06:37:26.685Z,21.78
2023-04-02T06:38:26.735Z,21.79
2023-04-02T06:39:26.708Z,21.81
2023-04-02T06:40:26.707Z,21.78
2023-04-02T06:41:26.711Z,21.82
2023-04-02T06:42:26.728Z,21.82
2023-04-02T06:43:26.701Z,21.79
2023-04-02T06:44:26.721Z,21.83
2023-04-02T06:45:26.746Z,21.79
2023-04-02T06:46:26.759Z,21.79
2023-04-02T06:47:26.756Z,21.83
2023-04-02T06:48:26.712Z,21.76
2023-04-02T06:49:26.742Z,21.76
2023-04-02T06:50:26.879Z,21.79
2023-04-02T06:51:26.725Z,21.81
2023-04-02T06:52:26.718Z,21.76
2023-04-02T06:53:26.729Z,21.79
2023-04-02T06:54:26.735Z,21.79
2023-04-02T06:55:26.762Z,21.76
2023-04-02T06:56:26.729Z,21.75
2023-04-02T06:57:26.809Z,21.74
2023-04-02T06:58:26.886Z,21.76
2023-04-02T06:59:26.733Z,21.76
2023-04-02T07:00:26.771Z,21.79
2023-04-02T07:01:26.782Z,21.79
2023-04-02T07:02:26.768Z,21.82
2023-04-02T07:03:26.991Z,21.79
2023-04-02T07:04:26.778Z,21.82
2023-04-02T07:05:26.764Z,21.79
2023-04-02T07:06:26.748Z,21.81
2023-04-02T07:07:26.753Z,21.74
2023-04-02T07:08:26.744Z,21.75
2023-04-02T07:09:26.761Z,21.75
2023-04-02T07:10:26.750Z,21.74
2023-04-02T07:11:26.747Z,21.60
2023-04-02T07:12:26.752Z,21.75
2023-04-02T07:13:26.758Z,21.66
2023-04-02T07:14:26.754Z,21.71
2023-04-02T07:15:26.772Z,21.75
2023-04-02T07:16:26.895Z,21.88
2023-04-02T07:17:26.805Z,21.81
2023-04-02T07:18:26.758Z,21.74
2023-04-02T07:19:26.756Z,21.76
2023-04-02T07:20:26.795Z,21.74
2023-04-02T07:21:26.801Z,21.81
2023-04-02T07:22:26.780Z,21.81
2023-04-02T07:23:26.779Z,21.83
2023-04-02T07:24:26.772Z,21.78
2023-04-02T07:25:26.776Z,21.88
2023-04-02T07:26:26.788Z,21.83
2023-04-02T07:27:26.791Z,21.83
2023-04-02T07:28:26.822Z,21.90
2023-04-02T07:29:26.777Z,21.85
2023-04-02T07:30:26.784Z,21.94
2023-04-02T07:31:26.865Z,21.90
2023-04-02T07:32:26.818Z,21.83
2023-04-02T07:33:26.789Z,21.92
2023-04-02T07:34:26.798Z,21.97
2023-04-02T07:35:26.788Z,21.83
2023-04-02T07:36:26.794Z,22.01
2023-04-02T07:37:26.831Z,21.90
2023-04-02T07:38:26.804Z,21.88
2023-04-02T07:39:26.800Z,21.91
2023-04-02T07:40:26.862Z,21.91
2023-04-02T07:41:26.808Z,21.95
2023-04-02T07:42:26.811Z,21.92
2023-04-02T07:43:26.835Z,21.95
2023-04-02T07:44:26.809Z,21.98
2023-04-02T07:45:26.804Z,22.01
2023-04-02T07:46:26.952Z,21.92
2023-04-02T07:47:26.835Z,21.99
2023-04-02T07:48:26.815Z,22.06
2023-04-02T07:49:26.816Z,22.02
2023-04-02T07:50:26.824Z,22.04
2023-04-02T07:51:26.822Z,21.99
2023-04-02T07:52:26.824Z,22.04
2023-04-02T07:53:26.847Z,22.09
2023-04-02T07:54:26.837Z,22.01
2023-04-02T07:55:26.835Z,21.61
2023-04-02T07:56:26.846Z,21.53
2023-04-02T07:57:26.862Z,21.63
2023-04-02T07:58:26.832Z,21.63
2023-04-02T07:59:27.133Z,21.79
2023-04-02T08:00:26.858Z,21.79
2023-04-02T08:01:26.865Z,21.98
2023-04-02T08:02:26.902Z,21.95
2023-04-02T08:03:26.978Z,21.95
2023-04-02T08:04:26.857Z,21.98
2023-04-02T08:05:26.859Z,21.92
2023-04-02T08:06:26.856Z,21.98
2023-04-02T08:07:26.851Z,22.09
2023-04-02T08:08:26.856Z,21.95
2023-04-02T08:09:26.881Z,21.94
2023-04-02T08:10:26.906Z,22.01
2023-04-02T08:11:26.867Z,21.95
2023-04-02T08:12:26.862Z,21.98
2023-04-02T08:13:26.869Z,22.06
2023-04-02T08:14:26.869Z,22.04
2023-04-02T08:15:26.868Z,22.06
2023-04-02T08:16:26.937Z,22.02
2023-04-02T08:17:26.891Z,21.97
2023-04-02T08:18:26.878Z,22.06
2023-04-02T08:19:26.875Z,22.14
2023-04-02T08:20:26.883Z,22.09
2023-04-02T08:21:26.884Z,22.19
2023-04-02T08:22:26.884Z,22.14
2023-04-02T08:23:26.888Z,22.14
2023-04-02T08:24:26.890Z,22.13
2023-04-02T08:25:26.925Z,22.12
2023-04-02T08:26:26.897Z,22.22
2023-04-02T08:27:26.890Z,22.22
2023-04-02T08:28:26.900Z,22.16
2023-04-02T08:29:26.898Z,22.28
2023-04-02T08:30:27.054Z,22.31
2023-04-02T08:31:26.938Z,22.34
2023-04-02T08:32:26.940Z,22.44
2023-04-02T08:33:26.908Z,22.39
2023-04-02T08:34:26.915Z,22.43
2023-04-02T08:35:26.918Z,22.53
2023-04-02T08:36:26.973Z,22.49
2023-04-02T08:37:26.923Z,22.65
2023-04-02T08:38:26.923Z,22.71
2023-04-02T08:39:26.920Z,22.71
2023-04-02T08:40:26.920Z,22.80
2023-04-02T08:41:26.947Z,22.93
2023-04-02T08:42:26.940Z,22.93
2023-04-02T08:43:26.937Z,23.07
2023-04-02T08:44:26.931Z,23.15
2023-04-02T08:45:26.931Z,23.31
2023-04-02T08:46:26.958Z,23.29
2023-04-02T08:47:26.956Z,23.39
2023-04-02T08:48:26.933Z,23.45
2023-04-02T08:49:26.941Z,23.64
2023-04-02T08:50:26.941Z,23.76
2023-04-02T08:51:26.941Z,23.90
2023-04-02T08:52:26.951Z,24.10
2023-04-02T08:53:26.959Z,24.50
2023-04-02T08:54:27.905Z,24.87
2023-04-02T08:55:26.953Z,25.44
2023-04-02T08:56:26.958Z,25.75
2023-04-02T08:57:27.061Z,25.80
2023-04-02T08:58:26.966Z,26.04
2023-04-02T08:59:26.966Z,26.28
2023-04-02T09:00:26.976Z,26.32
2023-04-02T09:01:27.022Z,26.69
2023-04-02T09:02:27.029Z,26.83
2023-04-02T09:03:26.992Z,27.04
2023-04-02T09:04:27.130Z,27.29
2023-04-02T09:05:27.006Z,27.57
2023-04-02T09:06:27.004Z,27.58
2023-04-02T09:07:27.017Z,27.36
2023-04-02T09:08:27.015Z,27.02
2023-04-02T09:09:27.023Z,26.43
2023-04-02T09:10:27.028Z,25.90
2023-04-02T09:11:27.034Z,25.24
2023-04-02T09:12:27.034Z,24.44
2023-04-02T09:13:27.161Z,24.34
2023-04-02T09:14:27.042Z,24.24
2023-04-02T09:15:27.061Z,24.04
2023-04-02T09:16:27.213Z,24.31
2023-04-02T09:17:27.066Z,24.44
2023-04-02T09:18:27.085Z,24.75
2023-04-02T09:19:27.067Z,24.83
2023-04-02T09:20:27.075Z,24.98
2023-04-02T09:21:27.077Z,25.10
2023-04-02T09:22:27.085Z,25.19
2023-04-02T09:23:27.089Z,25.24
2023-04-02T09:24:27.090Z,25.32
2023-04-02T09:25:27.154Z,25.37
2023-04-02T09:26:27.102Z,25.37
2023-04-02T09:27:27.100Z,25.43
2023-04-02T09:28:27.157Z,25.37
2023-04-02T09:29:27.134Z,25.10
2023-04-02T09:30:27.117Z,25.27
2023-04-02T09:31:27.194Z,25.25
2023-04-02T09:32:27.135Z,25.25
2023-04-02T09:33:27.135Z,25.38
2023-04-02T09:34:27.135Z,25.37
2023-04-02T09:35:27.261Z,25.52
2023-04-02T09:36:27.214Z,25.67
2023-04-02T09:37:27.151Z,25.74
2023-04-02T09:38:27.148Z,25.67
2023-04-02T09:39:27.148Z,25.72
2023-04-02T09:40:27.157Z,25.77
2023-04-02T09:41:27.180Z,25.79
2023-04-02T09:42:27.165Z,26.02
2023-04-02T09:43:27.166Z,26.36
2023-04-02T09:44:27.168Z,26.69
2023-04-02T09:45:27.203Z,27.26
2023-04-02T09:46:27.201Z,28.09
2023-04-02T09:47:27.211Z,28.84
2023-04-02T09:48:27.187Z,29.77
2023-04-02T09:49:27.197Z,30.38
2023-04-02T09:50:27.207Z,31.12
2023-04-02T09:51:27.213Z,31.24
2023-04-02T09:52:27.234Z,31.55
2023-04-02T09:53:27.220Z,31.76
2023-04-02T09:54:27.230Z,32.07
2023-04-02T09:55:27.260Z,32.05
2023-04-02T09:56:27.391Z,32.52
2023-04-02T09:57:27.386Z,32.40
2023-04-02T09:58:27.266Z,32.84
2023-04-02T09:59:27.269Z,33.07
2023-04-02T10:00:32.021Z,32.79
2023-04-02T10:01:27.391Z,32.59
2023-04-02T10:02:27.363Z,32.79
2023-04-02T10:03:27.312Z,33.15
2023-04-02T10:04:27.386Z,33.49
2023-04-02T10:05:39.849Z,32.85
2023-04-02T10:06:27.345Z,32.06
2023-04-02T10:07:27.362Z,31.43
2023-04-02T10:08:27.358Z,31.67
2023-04-02T10:09:27.390Z,31.93
2023-04-02T10:10:27.391Z,32.05
2023-04-02T10:11:36.342Z,32.22
2023-04-02T10:12:27.417Z,32.61
2023-04-02T10:13:27.422Z,32.44
2023-04-02T10:14:27.446Z,31.91
2023-04-02T10:15:27.456Z,30.19
2023-04-02T10:16:27.558Z,28.96
2023-04-02T10:17:27.533Z,28.19
2023-04-02T10:18:27.511Z,27.67
2023-04-02T10:19:27.568Z,27.42
2023-04-02T10:20:27.512Z,26.89
2023-04-02T10:21:27.591Z,26.47
2023-04-02T10:22:27.540Z,26.01
2023-04-02T10:23:27.556Z,25.89
2023-04-02T10:24:27.595Z,25.69
2023-04-02T10:25:27.588Z,25.50
2023-04-02T10:26:27.652Z,25.42
2023-04-02T10:27:27.598Z,25.43
2023-04-02T10:28:27.618Z,25.35
2023-04-02T10:29:27.619Z,25.24
2023-04-02T10:30:27.647Z,25.15
2023-04-02T10:31:27.733Z,24.80
2023-04-02T10:32:27.695Z,24.71
2023-04-02T10:33:27.685Z,24.75
2023-04-02T10:34:27.680Z,24.73
2023-04-02T10:35:27.714Z,24.35
2023-04-02T10:36:27.680Z,24.39
2023-04-02T10:37:27.695Z,24.41
2023-04-02T10:38:27.710Z,24.29
2023-04-02T10:39:27.703Z,24.31
2023-04-02T10:40:27.717Z,24.32
2023-04-02T10:41:27.719Z,24.49
2023-04-02T10:42:27.726Z,24.45
2023-04-02T10:43:27.742Z,24.39
2023-04-02T10:44:27.738Z,24.52
2023-04-02T10:45:27.760Z,24.47
2023-04-02T10:46:27.770Z,24.52
2023-04-02T10:47:27.800Z,24.34
2023-04-02T10:48:27.762Z,24.39
2023-04-02T10:49:27.848Z,24.32
2023-04-02T10:50:27.774Z,24.38
2023-04-02T10:51:28.035Z,24.37
2023-04-02T10:52:27.796Z,24.50
2023-04-02T10:53:27.795Z,24.47
2023-04-02T10:54:27.883Z,24.45
2023-04-02T10:55:27.803Z,24.34
2023-04-02T10:56:29.836Z,24.41
2023-04-02T10:57:27.859Z,24.38
2023-04-02T10:58:27.827Z,24.27
2023-04-02T10:59:27.821Z,24.23
2023-04-02T11:00:27.824Z,24.34
2023-04-02T11:01:27.848Z,24.29
2023-04-02T11:02:27.918Z,24.32
2023-04-02T11:03:27.927Z,24.29
2023-04-02T11:04:27.855Z,24.31
2023-04-02T11:05:27.871Z,24.37
2023-04-02T11:06:28.618Z,24.41
2023-04-02T11:07:27.961Z,24.31
2023-04-02T11:08:27.868Z,24.38
2023-04-02T11:09:27.872Z,24.32
2023-04-02T11:10:27.877Z,24.26
2023-04-02T11:11:27.896Z,24.26
2023-04-02T11:12:27.931Z,24.34
2023-04-02T11:13:27.889Z,24.29
2023-04-02T11:14:27.892Z,24.35
2023-04-02T11:15:27.902Z,24.37
2023-04-02T11:16:27.954Z,24.38
2023-04-02T11:17:28.213Z,24.38
2023-04-02T11:18:27.907Z,24.26
2023-04-02T11:19:27.916Z,24.34
2023-04-02T11:20:27.926Z,24.24
2023-04-02T11:21:27.941Z,24.23
2023-04-02T11:22:27.923Z,24.16
2023-04-02T11:23:27.949Z,24.23
2023-04-02T11:24:27.931Z,24.19
2023-04-02T11:25:27.932Z,24.26
2023-04-02T11:26:27.939Z,24.24
2023-04-02T11:27:27.953Z,24.27
2023-04-02T11:28:27.948Z,24.19
2023-04-02T11:29:27.978Z,24.26
2023-04-02T11:30:27.955Z,24.20
2023-04-02T11:31:27.964Z,24.17
2023-04-02T11:32:27.991Z,24.19
2023-04-02T11:33:36.358Z,24.14
2023-04-02T11:34:27.985Z,24.17
2023-04-02T11:35:28.026Z,24.24
2023-04-02T11:36:27.980Z,24.19
2023-04-02T11:37:28.006Z,24.19
2023-04-02T11:38:27.988Z,24.24
2023-04-02T11:39:28.000Z,24.22
2023-04-02T11:40:27.999Z,24.10
2023-04-02T11:41:28.002Z,24.23
2023-04-02T11:42:28.016Z,24.16
2023-04-02T11:43:28.012Z,24.13
2023-04-02T11:44:28.009Z,24.14
2023-04-02T11:45:28.023Z,24.17
2023-04-02T11:46:28.067Z,24.16
2023-04-02T11:47:28.095Z,24.16
2023-04-02T11:48:28.029Z,24.19
2023-04-02T11:49:28.234Z,24.17
2023-04-02T11:50:28.036Z,24.14
2023-04-02T11:51:28.042Z,24.00
2023-04-02T11:52:28.047Z,24.04
2023-04-02T11:53:28.091Z,24.08
2023-04-02T11:54:28.052Z,23.98
2023-04-02T11:55:28.057Z,24.02
2023-04-02T11:56:28.061Z,23.97
2023-04-02T11:57:28.120Z,24.00
2023-04-02T11:58:28.074Z,24.04
2023-04-02T11:59:28.070Z,24.05
2023-04-02T12:00:28.076Z,24.13
2023-04-02T12:01:28.086Z,24.14
2023-04-02T12:02:28.126Z,24.07
2023-04-02T12:03:28.081Z,24.07
2023-04-02T12:04:28.086Z,24.01
2023-04-02T12:05:28.147Z,24.00
2023-04-02T12:06:28.110Z,24.00
2023-04-02T12:07:28.094Z,24.01
2023-04-02T12:08:28.100Z,24.13
2023-04-02T12:09:28.140Z,24.19
2023-04-02T12:10:28.104Z,24.13
2023-04-02T12:11:28.110Z,24.20
2023-04-02T12:12:28.134Z,24.22
2023-04-02T12:13:28.119Z,24.26
2023-04-02T12:14:28.117Z,24.19
2023-04-02T12:15:28.129Z,24.20
2023-04-02T12:16:28.144Z,24.12
2023-04-02T12:17:28.200Z,24.12
2023-04-02T12:18:28.140Z,24.01
2023-04-02T12:19:28.142Z,24.08
2023-04-02T12:20:28.151Z,24.17
2023-04-02T12:21:28.170Z,24.14
2023-04-02T12:22:28.149Z,24.02
2023-04-02T12:23:28.153Z,24.01
2023-04-02T12:24:28.153Z,24.04
2023-04-02T12:25:28.190Z,24.01
2023-04-02T12:26:28.169Z,24.01
2023-04-02T12:27:28.168Z,24.12
2023-04-02T12:28:28.174Z,24.14
2023-04-02T12:29:28.179Z,24.07
2023-04-02T12:30:28.183Z,23.87
2023-04-02T12:31:28.215Z,23.39
2023-04-02T12:32:29.574Z,22.97
2023-04-02T12:33:28.197Z,23.01
2023-04-02T12:34:28.193Z,23.02
2023-04-02T12:35:28.499Z,23.11
2023-04-02T12:36:28.202Z,23.27
2023-04-02T12:37:28.204Z,23.23
2023-04-02T12:38:28.213Z,23.29
2023-04-02T12:39:28.624Z,23.31
2023-04-02T12:40:28.210Z,23.39
2023-04-02T12:41:28.246Z,23.32
2023-04-02T12:42:28.221Z,23.39
2023-04-02T12:43:28.224Z,23.45
2023-04-02T12:44:28.273Z,23.50
2023-04-02T12:45:29.609Z,23.50
2023-04-02T12:46:28.294Z,23.50
2023-04-02T12:47:28.322Z,23.46
2023-04-02T12:48:28.242Z,23.39
2023-04-02T12:49:28.240Z,23.43
2023-04-02T12:50:28.398Z,23.57
2023-04-02T12:51:28.499Z,23.50
2023-04-02T12:52:28.265Z,23.52